Terminal Aerodrome Forecast
Issued by NWS Glasgow, MT

Home | Current Version | Previous Version | Text Only | Print | Product List | Glossary On
Versions: 1 2 3 4 5 6 7 8 9 10 11 12 13 14
000
FTUS45 KGGW 050708 AAB
TAFGGW
TAF AMD
KGGW 050708Z 0507/0606 03016KT P6SM VCSH OVC030
     FM050900 04017G24KT P6SM -SHRA OVC040
     FM051200 07014KT P6SM SHRA BKN030
     FM051800 07013KT P6SM BKN020
     FM060000 05008KT 6SM -SHRA BKN040=

USA.gov is the U.S. government's official web portal to all federal, state and local government web resources and services.